createdAt,value
2018-04-24T00:01:10.908Z,97.00
2018-04-24T00:03:38.382Z,97.20
2018-04-24T00:06:05.846Z,97.00
2018-04-24T00:08:33.307Z,97.10
2018-04-24T00:11:00.775Z,96.90
2018-04-24T00:13:28.222Z,96.90
2018-04-24T00:15:55.800Z,97.00
2018-04-24T00:18:23.311Z,96.90
2018-04-24T00:20:50.691Z,96.80
2018-04-24T00:23:18.209Z,97.00
2018-04-24T00:25:45.654Z,96.50
2018-04-24T00:28:13.138Z,96.80
2018-04-24T00:30:40.619Z,97.10
2018-04-24T00:33:08.087Z,97.30
2018-04-24T00:35:35.608Z,97.60
2018-04-24T00:38:03.067Z,97.70
2018-04-24T00:40:30.558Z,97.70
2018-04-24T00:42:58.014Z,98.10
2018-04-24T00:45:25.444Z,97.90
2018-04-24T00:47:52.994Z,98.30
2018-04-24T00:50:20.445Z,98.70
2018-04-24T00:52:47.940Z,99.20
2018-04-24T00:55:15.387Z,99.60
2018-04-24T00:57:43.627Z,99.50
2018-04-24T01:00:11.110Z,99.50
2018-04-24T01:02:38.555Z,99.60
2018-04-24T01:05:06.019Z,99.80
2018-04-24T01:07:33.472Z,99.80
2018-04-24T01:10:00.948Z,99.90
2018-04-24T01:12:28.416Z,99.90
2018-04-24T01:14:55.991Z,99.90
2018-04-24T01:17:24.297Z,99.90
2018-04-24T01:19:51.778Z,99.90
2018-04-24T01:22:19.238Z,99.90
2018-04-24T01:24:46.691Z,99.90
2018-04-24T01:27:14.159Z,99.90
2018-04-24T01:29:41.613Z,99.90
2018-04-24T01:32:09.067Z,99.90
2018-04-24T01:34:36.519Z,99.90
2018-04-24T01:37:03.972Z,99.90
2018-04-24T01:39:31.434Z,99.90
2018-04-24T01:41:58.893Z,99.90
2018-04-24T01:44:26.351Z,99.90
2018-04-24T01:46:53.806Z,99.90
2018-04-24T01:49:21.278Z,99.90
2018-04-24T01:51:49.514Z,99.90
2018-04-24T01:54:16.994Z,99.90
2018-04-24T01:56:45.202Z,99.90
2018-04-24T01:59:12.702Z,99.90
2018-04-24T02:01:40.172Z,99.90
2018-04-24T02:04:07.627Z,99.90
2018-04-24T02:06:35.103Z,99.90
2018-04-24T02:09:03.353Z,99.90
2018-04-24T02:11:30.838Z,99.90
2018-04-24T02:13:58.304Z,99.90
2018-04-24T02:16:25.767Z,99.90
2018-04-24T02:18:53.246Z,99.90
2018-04-24T02:21:20.724Z,99.90
2018-04-24T02:23:48.248Z,99.90
2018-04-24T02:26:16.505Z,99.90
2018-04-24T02:28:43.962Z,99.90
2018-04-24T02:31:11.460Z,99.90
2018-04-24T02:33:38.920Z,99.90
2018-04-24T02:36:06.450Z,99.90
2018-04-24T02:38:33.889Z,99.90
2018-04-24T02:41:01.358Z,99.90
2018-04-24T02:43:28.834Z,99.90
2018-04-24T02:45:56.284Z,99.90
2018-04-24T02:48:23.778Z,99.90
2018-04-24T02:50:51.288Z,99.90
2018-04-24T02:53:18.763Z,99.90
2018-04-24T02:55:46.987Z,99.90
2018-04-24T02:58:15.120Z,99.90
2018-04-24T03:00:43.340Z,99.90
2018-04-24T03:03:11.557Z,99.90
2018-04-24T03:05:39.012Z,99.90
2018-04-24T03:08:06.488Z,99.90
2018-04-24T03:10:33.935Z,99.90
2018-04-24T03:13:02.192Z,99.90
2018-04-24T03:15:29.640Z,99.90
2018-04-24T03:17:57.118Z,99.90
2018-04-24T03:20:24.582Z,99.90
2018-04-24T03:22:52.084Z,99.90
2018-04-24T03:25:19.545Z,99.90
2018-04-24T03:27:47.108Z,99.90
2018-04-24T03:30:14.546Z,99.90
2018-04-24T03:32:42.050Z,99.90
2018-04-24T03:35:10.301Z,99.90
2018-04-24T03:37:38.574Z,99.90
2018-04-24T03:40:10.001Z,99.90
2018-04-24T03:42:37.503Z,99.90
2018-04-24T03:45:05.743Z,99.90
2018-04-24T03:47:33.217Z,99.90
2018-04-24T03:50:00.685Z,99.90
2018-04-24T03:52:28.180Z,99.90
2018-04-24T03:54:55.624Z,99.90
2018-04-24T03:57:23.146Z,99.90
2018-04-24T03:59:50.635Z,99.90
2018-04-24T04:02:18.863Z,99.90
2018-04-24T04:04:46.347Z,99.90
2018-04-24T04:07:13.842Z,99.90
2018-04-24T04:09:41.418Z,99.90
2018-04-24T04:12:08.875Z,99.90
2018-04-24T04:14:36.358Z,99.90
2018-04-24T04:17:15.712Z,99.90
2018-04-24T04:19:55.177Z,99.90
2018-04-24T04:22:34.870Z,99.90
2018-04-24T04:25:02.272Z,99.90
2018-04-24T04:27:29.750Z,99.90
2018-04-24T04:29:57.210Z,99.90
2018-04-24T04:32:24.676Z,99.90
2018-04-24T04:34:52.134Z,99.90
2018-04-24T04:37:19.679Z,99.90
2018-04-24T04:39:47.916Z,99.90
2018-04-24T04:42:16.173Z,99.90
2018-04-24T04:44:44.449Z,99.90
2018-04-24T04:47:12.699Z,99.90
2018-04-24T04:49:40.152Z,99.90
2018-04-24T04:52:07.627Z,99.90
2018-04-24T04:54:35.254Z,99.90
2018-04-24T04:57:02.736Z,99.90
2018-04-24T04:59:30.207Z,99.90
2018-04-24T05:01:57.694Z,99.90
2018-04-24T05:04:25.219Z,99.90
2018-04-24T05:06:52.712Z,99.90
2018-04-24T05:09:20.928Z,99.90
2018-04-24T05:11:48.416Z,99.90
2018-04-24T05:14:16.675Z,99.90
2018-04-24T05:16:44.160Z,99.90
2018-04-24T05:19:12.496Z,99.90
2018-04-24T05:21:39.947Z,99.90
2018-04-24T05:24:07.448Z,99.90
2018-04-24T05:26:36.134Z,99.90
2018-04-24T05:29:03.580Z,99.90
2018-04-24T05:31:31.071Z,99.90
2018-04-24T05:33:59.368Z,99.90
2018-04-24T05:36:26.812Z,99.90
2018-04-24T05:38:54.289Z,99.90
2018-04-24T05:41:22.539Z,99.90
2018-04-24T05:43:50.049Z,99.90
2018-04-24T05:46:17.494Z,99.90
2018-04-24T05:48:44.955Z,99.90
2018-04-24T05:51:12.435Z,99.90
2018-04-24T05:53:40.663Z,99.90
2018-04-24T05:56:08.106Z,99.90
2018-04-24T05:58:35.668Z,99.90
2018-04-24T06:01:03.212Z,99.90
2018-04-24T06:03:30.651Z,99.90
2018-04-24T06:05:58.123Z,99.90
2018-04-24T06:08:25.783Z,99.90
2018-04-24T06:10:53.203Z,99.90
2018-04-24T06:13:20.660Z,99.90
2018-04-24T06:15:48.140Z,99.90
2018-04-24T06:18:16.531Z,99.90
2018-04-24T06:20:44.307Z,99.50
2018-04-24T06:23:11.753Z,99.80
2018-04-24T06:25:39.222Z,99.90
2018-04-24T06:28:06.703Z,99.90
2018-04-24T06:30:34.158Z,99.90
2018-04-24T06:33:01.661Z,99.90
2018-04-24T06:35:29.949Z,99.90
2018-04-24T06:37:57.418Z,99.90
2018-04-24T06:40:24.903Z,99.90
2018-04-24T06:42:52.376Z,99.90
2018-04-24T06:45:19.836Z,99.90
2018-04-24T06:47:47.355Z,99.90
2018-04-24T06:50:15.553Z,99.90
2018-04-24T06:52:43.027Z,99.90
2018-04-24T06:55:10.475Z,99.90
2018-04-24T06:57:37.933Z,99.90
2018-04-24T07:00:05.457Z,99.90
2018-04-24T07:02:32.945Z,99.90
2018-04-24T07:05:00.457Z,99.90
2018-04-24T07:07:27.992Z,99.90
2018-04-24T07:09:55.506Z,99.90
2018-04-24T07:12:22.974Z,99.90
2018-04-24T07:14:50.453Z,99.90
2018-04-24T07:17:18.711Z,99.90
2018-04-24T07:19:46.180Z,99.90
2018-04-24T07:22:14.450Z,99.90
2018-04-24T07:24:41.952Z,99.90
2018-04-24T07:27:09.434Z,99.90
2018-04-24T07:29:36.902Z,99.90
2018-04-24T07:32:04.372Z,99.80
2018-04-24T07:34:31.818Z,99.00
2018-04-24T07:36:59.288Z,97.70
2018-04-24T07:39:26.782Z,96.70
2018-04-24T07:41:54.310Z,97.00
2018-04-24T07:44:22.535Z,95.50
2018-04-24T07:46:50.034Z,95.50
2018-04-24T07:49:17.459Z,94.00
2018-04-24T07:51:45.669Z,92.40
2018-04-24T07:54:13.325Z,92.40
2018-04-24T07:56:40.847Z,91.10
2018-04-24T07:59:08.322Z,91.60
2018-04-24T08:01:35.885Z,92.60
2018-04-24T08:04:03.319Z,92.50
2018-04-24T08:06:30.832Z,93.20
2018-04-24T08:08:59.053Z,92.80
2018-04-24T08:11:26.523Z,92.80
2018-04-24T08:13:54.009Z,92.00
2018-04-24T08:16:21.477Z,92.80
2018-04-24T08:18:49.713Z,91.00
2018-04-24T08:21:17.255Z,91.00
2018-04-24T08:23:45.490Z,92.10
2018-04-24T08:26:13.105Z,92.10
2018-04-24T08:28:40.566Z,91.50
2018-04-24T08:31:08.064Z,91.60
2018-04-24T08:33:35.553Z,92.10
2018-04-24T08:36:03.724Z,91.30
2018-04-24T08:38:31.204Z,91.30
2018-04-24T08:40:58.665Z,91.10
2018-04-24T08:43:26.119Z,91.30
2018-04-24T08:45:53.680Z,91.00
2018-04-24T08:48:21.169Z,90.80
2018-04-24T08:50:49.411Z,90.40
2018-04-24T08:53:16.881Z,90.40
2018-04-24T08:55:44.325Z,90.40
2018-04-24T08:58:11.829Z,90.80
2018-04-24T09:00:40.053Z,91.40
2018-04-24T09:03:07.548Z,91.40
2018-04-24T09:05:35.791Z,90.80
2018-04-24T09:08:03.290Z,90.90
2018-04-24T09:10:30.765Z,90.90
2018-04-24T09:12:58.239Z,90.00
2018-04-24T09:15:25.702Z,90.60
2018-04-24T09:17:53.191Z,89.70
2018-04-24T09:20:21.444Z,90.10
2018-04-24T09:22:48.953Z,89.40
2018-04-24T09:25:16.438Z,88.70
2018-04-24T09:27:43.894Z,89.70
2018-04-24T09:30:11.383Z,87.50
2018-04-24T09:32:39.643Z,86.90
2018-04-24T09:35:07.168Z,86.80
2018-04-24T09:37:34.627Z,88.50
2018-04-24T09:40:02.115Z,88.30
2018-04-24T09:42:29.581Z,87.10
2018-04-24T09:44:57.103Z,84.80
2018-04-24T09:47:24.584Z,83.60
2018-04-24T09:49:52.018Z,83.70
2018-04-24T09:52:19.528Z,83.60
2018-04-24T09:54:47.051Z,82.40
2018-04-24T09:57:14.557Z,83.30
2018-04-24T09:59:42.008Z,81.80
2018-04-24T10:02:09.524Z,81.60
2018-04-24T10:04:36.945Z,80.30
2018-04-24T10:07:04.409Z,77.60
2018-04-24T10:09:31.878Z,78.30
2018-04-24T10:11:59.354Z,79.70
2018-04-24T10:14:26.797Z,77.70
2018-04-24T10:16:54.278Z,76.00
2018-04-24T10:19:21.729Z,76.30
2018-04-24T10:21:49.199Z,76.80
2018-04-24T10:24:17.431Z,78.70
2018-04-24T10:26:44.907Z,77.80
2018-04-24T10:29:12.384Z,75.20
2018-04-24T10:31:40.628Z,74.00
2018-04-24T10:34:08.092Z,74.00
2018-04-24T10:36:35.567Z,75.20
2018-04-24T10:39:03.047Z,75.30
2018-04-24T10:41:31.254Z,72.20
2018-04-24T10:43:58.728Z,72.20
2018-04-24T10:46:26.183Z,73.20
2018-04-24T10:48:53.676Z,71.50
2018-04-24T10:51:21.925Z,71.10
2018-04-24T10:53:49.449Z,71.00
2018-04-24T10:56:16.892Z,69.70
2018-04-24T10:58:44.377Z,69.30
2018-04-24T11:01:11.863Z,69.20
2018-04-24T11:03:39.448Z,68.80
2018-04-24T11:06:06.910Z,68.30
2018-04-24T11:08:34.403Z,68.70
2018-04-24T11:11:01.914Z,67.70
2018-04-24T11:13:30.183Z,67.70
2018-04-24T11:15:58.419Z,67.80
2018-04-24T11:18:25.877Z,67.70
2018-04-24T11:20:53.390Z,69.00
2018-04-24T11:23:20.863Z,68.00
2018-04-24T11:25:48.363Z,66.40
2018-04-24T11:28:15.821Z,67.00
2018-04-24T11:30:43.338Z,66.80
2018-04-24T11:33:10.791Z,66.10
2018-04-24T11:35:38.303Z,64.70
2018-04-24T11:38:05.771Z,62.90
2018-04-24T11:40:33.259Z,65.80
2018-04-24T11:43:00.738Z,67.80
2018-04-24T11:45:28.935Z,66.60
2018-04-24T11:47:56.407Z,66.40
2018-04-24T11:50:23.876Z,64.70
2018-04-24T11:52:51.354Z,64.80
2018-04-24T11:55:18.818Z,63.00
2018-04-24T11:57:47.114Z,65.00
2018-04-24T12:00:14.697Z,65.00
2018-04-24T12:02:42.301Z,64.90
2018-04-24T12:05:09.631Z,62.60
2018-04-24T12:07:37.172Z,61.90
2018-04-24T12:10:04.723Z,61.60
2018-04-24T12:12:32.117Z,62.80
2018-04-24T12:15:00.367Z,63.90
2018-04-24T12:17:27.835Z,63.80
2018-04-24T12:19:55.306Z,64.50
2018-04-24T12:22:23.575Z,64.40
2018-04-24T12:24:51.047Z,64.40
2018-04-24T12:27:19.337Z,62.90
2018-04-24T12:29:46.783Z,62.90
2018-04-24T12:32:14.227Z,62.50
2018-04-24T12:34:41.688Z,61.50
2018-04-24T12:37:09.160Z,61.70
2018-04-24T12:39:36.650Z,60.00
2018-04-24T12:42:04.179Z,60.50
2018-04-24T12:44:31.653Z,60.00
2018-04-24T12:46:59.131Z,60.20
2018-04-24T12:49:26.900Z,60.50
2018-04-24T12:51:54.383Z,61.00
2018-04-24T12:54:21.836Z,60.70
2018-04-24T12:56:49.293Z,60.30
2018-04-24T12:59:16.927Z,60.80
2018-04-24T13:01:44.379Z,62.30
2018-04-24T13:04:11.841Z,58.60
2018-04-24T13:06:39.305Z,57.90
2018-04-24T13:09:06.891Z,56.30
2018-04-24T13:11:34.362Z,57.00
2018-04-24T13:14:02.040Z,57.90
2018-04-24T13:16:29.598Z,58.10
2018-04-24T13:18:57.832Z,57.10
2018-04-24T13:21:25.280Z,57.00
2018-04-24T13:23:52.724Z,56.40
2018-04-24T13:26:20.975Z,55.80
2018-04-24T13:28:48.422Z,55.80
2018-04-24T13:31:16.014Z,56.10
2018-04-24T13:33:44.187Z,56.80
2018-04-24T13:36:11.668Z,56.80
2018-04-24T13:38:39.111Z,55.60
2018-04-24T13:41:07.371Z,54.20
2018-04-24T13:43:34.826Z,54.20
2018-04-24T13:46:02.282Z,54.70
2018-04-24T13:48:29.760Z,54.10
2018-04-24T13:50:57.345Z,54.80
2018-04-24T13:53:24.815Z,55.00
2018-04-24T13:55:52.279Z,54.20
2018-04-24T13:58:19.763Z,54.00
2018-04-24T14:00:47.359Z,54.30
2018-04-24T14:03:14.862Z,53.80
2018-04-24T14:05:42.493Z,53.90
2018-04-24T14:08:10.029Z,54.10
2018-04-24T14:10:37.473Z,53.90
2018-04-24T14:13:04.985Z,53.50
2018-04-24T14:15:32.461Z,53.80
2018-04-24T14:18:01.464Z,54.30
2018-04-24T14:20:28.913Z,53.60
2018-04-24T14:22:56.376Z,52.50
2018-04-24T14:25:23.840Z,52.60
2018-04-24T14:27:51.347Z,53.10
2018-04-24T14:30:18.841Z,53.60
2018-04-24T14:32:46.304Z,53.60
2018-04-24T14:35:13.761Z,53.70
2018-04-24T14:37:41.465Z,53.60
2018-04-24T14:40:08.926Z,54.10
2018-04-24T14:42:39.852Z,54.20
2018-04-24T14:45:07.296Z,54.50
2018-04-24T14:47:35.538Z,54.10
2018-04-24T14:50:03.060Z,54.10
2018-04-24T14:52:30.502Z,55.00
2018-04-24T14:54:57.978Z,54.30
2018-04-24T14:57:25.520Z,54.10
2018-04-24T14:59:53.004Z,54.10
2018-04-24T15:02:20.586Z,54.50
2018-04-24T15:04:48.063Z,55.20
2018-04-24T15:07:15.547Z,55.20
2018-04-24T15:09:43.038Z,55.10
2018-04-24T15:12:10.494Z,55.50
2018-04-24T15:14:37.982Z,55.90
2018-04-24T15:17:05.548Z,55.70
2018-04-24T15:19:33.126Z,56.00
2018-04-24T15:22:00.675Z,55.80
2018-04-24T15:24:28.301Z,56.10
2018-04-24T15:26:55.733Z,56.50
2018-04-24T15:29:23.223Z,56.50
2018-04-24T15:31:50.684Z,57.00
2018-04-24T15:34:19.072Z,57.20
2018-04-24T15:36:46.556Z,57.70
2018-04-24T15:39:14.066Z,57.70
2018-04-24T15:41:41.906Z,57.70
2018-04-24T15:44:09.452Z,58.00
2018-04-24T15:46:37.684Z,58.30
2018-04-24T15:49:05.192Z,58.20
2018-04-24T15:51:32.645Z,57.90
2018-04-24T15:54:00.136Z,57.80
2018-04-24T15:56:28.397Z,57.70
2018-04-24T15:58:55.896Z,57.60
2018-04-24T16:01:23.356Z,58.30
2018-04-24T16:03:50.874Z,57.90
2018-04-24T16:06:18.386Z,57.70
2018-04-24T16:08:45.852Z,58.00
2018-04-24T16:11:13.934Z,58.00
2018-04-24T16:13:42.237Z,58.00
2018-04-24T16:16:10.059Z,57.90
2018-04-24T16:18:37.536Z,58.30
2018-04-24T16:21:05.127Z,58.10
2018-04-24T16:23:32.571Z,58.30
2018-04-24T16:26:01.733Z,58.30
2018-04-24T16:28:29.255Z,58.20
2018-04-24T16:30:56.764Z,58.10
2018-04-24T16:33:24.250Z,58.20
2018-04-24T16:35:51.750Z,58.30
2018-04-24T16:38:19.217Z,58.10
2018-04-24T16:40:46.743Z,58.70
2018-04-24T16:43:14.251Z,58.70
2018-04-24T16:45:41.739Z,57.80
2018-04-24T16:48:09.298Z,58.20
2018-04-24T16:50:36.833Z,57.50
2018-04-24T16:53:04.385Z,56.80
2018-04-24T16:55:32.639Z,57.00
2018-04-24T16:58:00.143Z,57.00
2018-04-24T17:00:27.599Z,56.80
2018-04-24T17:02:55.125Z,56.80
2018-04-24T17:05:23.379Z,56.20
2018-04-24T17:07:50.866Z,56.30
2018-04-24T17:10:18.332Z,56.20
2018-04-24T17:12:45.810Z,55.70
2018-04-24T17:15:13.302Z,56.30
2018-04-24T17:17:40.928Z,56.00
2018-04-24T17:20:08.478Z,55.50
2018-04-24T17:22:35.978Z,55.30
2018-04-24T17:25:03.490Z,55.20
2018-04-24T17:27:30.995Z,54.30
2018-04-24T17:29:58.469Z,54.90
2018-04-24T17:32:26.982Z,54.60
2018-04-24T17:34:54.613Z,54.70
2018-04-24T17:37:22.104Z,54.50
2018-04-24T17:39:50.099Z,54.20
2018-04-24T17:42:21.549Z,54.00
2018-04-24T17:44:49.087Z,54.30
2018-04-24T17:47:16.588Z,54.50
2018-04-24T17:49:44.130Z,54.90
2018-04-24T17:52:11.674Z,55.10
2018-04-24T17:54:39.381Z,55.40
2018-04-24T17:57:06.916Z,55.40
2018-04-24T17:59:34.465Z,55.30
2018-04-24T18:02:02.720Z,55.70
2018-04-24T18:04:30.305Z,55.60
2018-04-24T18:06:57.831Z,55.90
2018-04-24T18:09:25.362Z,56.20
2018-04-24T18:11:53.637Z,56.30
2018-04-24T18:14:21.875Z,57.00
2018-04-24T18:16:49.407Z,57.00
2018-04-24T18:19:16.995Z,57.30
2018-04-24T18:21:44.555Z,57.60
2018-04-24T18:24:12.831Z,58.20
2018-04-24T18:26:40.400Z,58.20
2018-04-24T18:29:07.880Z,58.60
2018-04-24T18:31:35.446Z,58.90
2018-04-24T18:34:03.035Z,59.10
2018-04-24T18:36:30.558Z,59.30
2018-04-24T18:38:58.075Z,59.90
2018-04-24T18:41:25.835Z,59.40
2018-04-24T18:43:53.320Z,59.80
2018-04-24T18:46:20.816Z,59.90
2018-04-24T18:48:48.604Z,60.10
2018-04-24T18:51:16.103Z,60.30
2018-04-24T19:06:38.927Z,60.70
2018-04-24T19:09:07.215Z,62.80
2018-04-24T19:11:35.661Z,63.20
2018-04-24T19:14:08.838Z,63.20
2018-04-24T19:16:36.379Z,63.20
2018-04-24T19:19:19.607Z,63.50
2018-04-24T19:21:47.126Z,63.70
2018-04-24T19:24:20.432Z,64.30
2018-04-24T19:26:47.960Z,64.30
2018-04-24T19:29:15.522Z,64.80
2018-04-24T19:31:48.736Z,65.30
2018-04-24T19:34:16.268Z,65.50
2018-04-24T19:36:44.132Z,65.90
2018-04-24T19:39:17.948Z,66.40
2018-04-24T19:41:50.171Z,66.40
2018-04-24T19:44:17.701Z,66.40
2018-04-24T19:46:45.200Z,66.70
2018-04-24T19:49:19.086Z,67.30
2018-04-24T19:51:47.275Z,67.50
2018-04-24T19:54:14.730Z,67.50
2018-04-24T19:56:42.215Z,67.50
2018-04-24T19:59:09.678Z,67.40
2018-04-24T20:01:37.188Z,67.30
2018-04-24T20:04:04.621Z,67.60
2018-04-24T20:06:33.005Z,67.90
2018-04-24T20:09:00.474Z,67.90
2018-04-24T20:11:27.956Z,68.10
2018-04-24T20:13:55.456Z,68.60
2018-04-24T20:16:22.941Z,68.60
2018-04-24T20:18:50.384Z,68.90
2018-04-24T20:21:17.931Z,69.00
2018-04-24T20:23:45.599Z,69.10
2018-04-24T20:26:13.029Z,69.50
2018-04-24T20:28:40.499Z,69.90
2018-04-24T20:31:08.004Z,70.50
2018-04-24T20:33:35.510Z,70.50
2018-04-24T20:36:03.726Z,71.30
2018-04-24T20:38:31.199Z,71.30
2018-04-24T20:40:58.675Z,71.60
2018-04-24T20:43:26.859Z,71.90
2018-04-24T20:45:54.346Z,72.40
2018-04-24T20:48:22.584Z,73.00
2018-04-24T20:50:50.063Z,72.90
2018-04-24T20:53:17.645Z,73.50
2018-04-24T20:55:45.124Z,73.80
2018-04-24T20:58:12.598Z,74.20
2018-04-24T21:00:40.415Z,74.50
2018-04-24T21:03:07.808Z,74.90
2018-04-24T21:05:35.261Z,75.00
2018-04-24T21:08:02.818Z,75.30
2018-04-24T21:10:30.461Z,75.70
2018-04-24T21:12:57.931Z,76.30
2018-04-24T21:15:25.393Z,76.80
2018-04-24T21:17:52.865Z,77.90
2018-04-24T21:20:20.340Z,77.50
2018-04-24T21:22:47.827Z,78.00
2018-04-24T21:25:15.282Z,78.20
2018-04-24T21:27:42.742Z,78.80
2018-04-24T21:30:10.205Z,78.90
2018-04-24T21:32:38.476Z,79.50
2018-04-24T21:35:06.812Z,80.10
2018-04-24T21:37:34.215Z,80.00
2018-04-24T21:40:01.697Z,80.40
2018-04-24T21:42:29.193Z,80.90
2018-04-24T21:44:56.719Z,81.40
2018-04-24T21:47:24.140Z,81.70
2018-04-24T21:49:51.663Z,82.20
2018-04-24T21:52:19.243Z,82.50
2018-04-24T21:54:46.723Z,82.80
2018-04-24T21:57:14.194Z,83.10
2018-04-24T21:59:41.730Z,83.60
2018-04-24T22:02:09.171Z,83.80
2018-04-24T22:04:36.659Z,84.50
2018-04-24T22:07:04.105Z,85.00
2018-04-24T22:09:31.616Z,85.40
2018-04-24T22:11:59.050Z,85.60
2018-04-24T22:14:26.515Z,86.10
2018-04-24T22:16:54.009Z,86.60
2018-04-24T22:19:21.472Z,87.00
2018-04-24T22:21:48.983Z,87.30
2018-04-24T22:24:16.416Z,87.90
2018-04-24T22:26:43.903Z,88.50
2018-04-24T22:29:11.358Z,88.90
2018-04-24T22:31:39.605Z,89.40
2018-04-24T22:34:07.074Z,89.40
2018-04-24T22:36:34.529Z,89.80
2018-04-24T22:39:02.043Z,90.10
2018-04-24T22:41:29.984Z,90.10
2018-04-24T22:43:57.430Z,90.20
2018-04-24T22:46:24.918Z,90.30
2018-04-24T22:48:52.387Z,90.50
2018-04-24T22:51:20.649Z,90.80
2018-04-24T22:53:48.110Z,90.80
2018-04-24T22:56:15.592Z,91.00
2018-04-24T22:58:43.142Z,91.00
2018-04-24T23:01:10.607Z,91.10
2018-04-24T23:03:38.067Z,91.40
2018-04-24T23:06:05.515Z,91.50
2018-04-24T23:08:33.749Z,91.90
2018-04-24T23:11:12.943Z,91.90
2018-04-24T23:13:52.223Z,92.10
2018-04-24T23:16:31.653Z,92.10
2018-04-24T23:19:11.681Z,92.50
2018-04-24T23:21:38.629Z,92.50
2018-04-24T23:24:06.096Z,92.60
2018-04-24T23:26:33.616Z,92.60
2018-04-24T23:29:01.086Z,92.70
2018-04-24T23:31:28.536Z,92.80
2018-04-24T23:33:55.996Z,93.20
2018-04-24T23:36:23.454Z,93.20
2018-04-24T23:38:50.922Z,93.30
2018-04-24T23:41:18.354Z,93.50
2018-04-24T23:43:45.817Z,93.60
2018-04-24T23:46:13.278Z,93.60
2018-04-24T23:48:40.750Z,93.70
2018-04-24T23:51:08.200Z,93.80
2018-04-24T23:53:35.791Z,93.80
2018-04-24T23:56:03.252Z,94.10
2018-04-24T23:58:30.746Z,94.20
